Limassol, Cyprus
Current Conditions -  °F | °C
As of 11:50 AM on Saturday 22 Nov 2014 (Local Time) from LCRA Reporting Station
Few Clouds Few Clouds  
Wind Chill: 66°   Ceiling: Unl
Heat Index: 66°   Visibility: 6mi
Dew Point: 39°   Wind: 17mph
Humidity: 37%   Direction: 300°WNW
Pressure: 29.88"   Gusts: NA
Location:  34.76°N, 32.95°E
Report Text: LCRA 220850Z 30015KT 9999 FEW040 19/04 Q1012 NOSIG
Loading
Personal Weather Stations






























Interactive Weather Map New forecast layout! Learn more

10-Day Weather Forecast

Advertisements
Track Severe Weather on mobile